Time;durP1;ratioP1;P1;durP2;ratioP2;P2;SDS_P1;SDS_P2;PMS_P1;PMS_P2;Temp;Humidity;BMP_temperature;BMP_pressure;BME280_temperature;BME280_humidity;BME280_pressure;Samples;Min_cycle;Max_cycle;Signal;HPM_P1;HPM_P2
2023/07/03 00:00:14;;;;;;;13.45;4.03;;;16.10;99.90;;;;;;4991307;28;20061;-66
2023/07/03 00:02:40;;;;;;;16.80;3.92;;;16.10;99.90;;;;;;5015948;28;20041;-66
2023/07/03 00:05:08;;;;;;;16.33;4.60;;;16.10;99.90;;;;;;5010610;28;20052;-66
2023/07/03 00:07:34;;;;;;;17.15;3.63;;;16.10;99.90;;;;;;5011084;28;20103;-65
2023/07/03 00:10:00;;;;;;;16.35;4.80;;;16.10;99.90;;;;;;5012680;28;20045;-66
2023/07/03 00:12:26;;;;;;;12.60;3.78;;;16.10;99.90;;;;;;5005230;28;20061;-73
2023/07/03 00:14:52;;;;;;;16.35;4.07;;;16.10;99.90;;;;;;5014499;28;20106;-74
2023/07/03 00:17:18;;;;;;;13.88;4.47;;;16.10;99.90;;;;;;5010171;28;20038;-73
2023/07/03 00:19:43;;;;;;;14.18;3.90;;;16.10;99.90;;;;;;5014500;28;20045;-73
2023/07/03 00:22:09;;;;;;;14.30;3.33;;;16.10;99.90;;;;;;5010647;28;20069;-73
2023/07/03 00:24:35;;;;;;;16.75;4.72;;;16.10;99.90;;;;;;5011947;28;20055;-73
2023/07/03 00:27:00;;;;;;;17.00;4.20;;;16.10;99.90;;;;;;5016559;28;20052;-73
2023/07/03 00:29:31;;;;;;;15.50;4.22;;;16.10;99.90;;;;;;5014729;28;20044;-73
2023/07/03 00:31:57;;;;;;;15.67;4.90;;;16.10;99.90;;;;;;5014374;28;20082;-74
2023/07/03 00:34:23;;;;;;;14.40;3.70;;;16.10;99.90;;;;;;5011957;28;20185;-73
2023/07/03 00:36:49;;;;;;;16.00;4.20;;;16.10;99.90;;;;;;5025055;28;20045;-73
2023/07/03 00:39:15;;;;;;;14.98;4.15;;;16.10;99.90;;;;;;5011530;28;20041;-74
2023/07/03 00:41:42;;;;;;;16.67;4.30;;;16.10;99.90;;;;;;5016511;28;20049;-73
2023/07/03 00:44:11;;;;;;;17.00;3.55;;;16.00;99.90;;;;;;5007071;28;20049;-73
2023/07/03 00:46:39;;;;;;;13.52;3.42;;;16.00;99.90;;;;;;5018848;28;20080;-72
2023/07/03 00:49:05;;;;;;;11.07;3.42;;;16.00;99.90;;;;;;5014836;28;20698;-72
2023/07/03 00:51:31;;;;;;;14.73;3.45;;;16.00;99.90;;;;;;5018175;28;20088;-73
2023/07/03 00:53:57;;;;;;;14.38;3.55;;;16.00;99.90;;;;;;5022538;28;20121;-72
2023/07/03 00:56:22;;;;;;;15.65;4.28;;;16.00;99.90;;;;;;5010118;28;20124;-72
2023/07/03 00:58:48;;;;;;;14.05;3.30;;;16.00;99.90;;;;;;5002109;28;20049;-73
2023/07/03 01:01:23;;;;;;;15.60;3.70;;;16.00;99.90;;;;;;5009636;28;20096;-73
2023/07/03 01:04:03;;;;;;;16.75;3.95;;;16.00;99.90;;;;;;5011055;28;20049;-72
2023/07/03 01:06:39;;;;;;;14.85;3.53;;;16.00;99.90;;;;;;5011905;28;20053;-72
2023/07/03 01:09:08;;;;;;;14.45;3.65;;;16.00;99.90;;;;;;5001218;28;20055;-72
2023/07/03 01:11:36;;;;;;;13.85;3.80;;;16.00;99.90;;;;;;5012916;28;20041;-74
2023/07/03 01:14:05;;;;;;;13.70;3.38;;;16.00;99.90;;;;;;4996630;28;20121;-72
2023/07/03 01:16:33;;;;;;;16.67;4.07;;;15.90;99.90;;;;;;5012741;28;20152;-73
2023/07/03 01:19:00;;;;;;;13.02;3.60;;;15.90;99.90;;;;;;5001921;28;20408;-72
2023/07/03 01:21:42;;;;;;;15.57;3.33;;;16.00;99.90;;;;;;5021557;28;20879;-73
2023/07/03 01:24:15;;;;;;;14.55;3.83;;;15.90;99.90;;;;;;5017868;28;20133;-73
2023/07/03 01:26:44;;;;;;;14.27;3.50;;;16.00;99.90;;;;;;5015745;28;20052;-73
2023/07/03 01:29:12;;;;;;;13.82;3.63;;;15.90;99.90;;;;;;5011854;28;20053;-72
2023/07/03 01:31:38;;;;;;;16.13;3.83;;;16.00;99.90;;;;;;5013854;28;20057;-73
2023/07/03 01:34:08;;;;;;;12.90;3.33;;;15.90;99.90;;;;;;5018762;28;20127;-73
2023/07/03 01:36:35;;;;;;;14.45;3.33;;;15.90;99.90;;;;;;5014452;28;20410;-73
2023/07/03 01:39:02;;;;;;;15.77;3.92;;;15.90;99.90;;;;;;4997812;28;20076;-73
2023/07/03 01:41:29;;;;;;;16.70;3.65;;;15.90;99.90;;;;;;5002862;28;20704;-73
2023/07/03 01:43:55;;;;;;;13.05;3.33;;;15.90;99.90;;;;;;5016283;28;20045;-73
2023/07/03 01:46:22;;;;;;;12.85;3.45;;;15.90;99.90;;;;;;5011668;28;20115;-73
2023/07/03 01:48:48;;;;;;;11.48;2.95;;;15.90;99.90;;;;;;5016387;28;20422;-73
2023/07/03 01:51:32;;;;;;;13.45;3.47;;;15.90;99.90;;;;;;5012284;28;20038;-73
2023/07/03 01:54:24;;;;;;;16.33;3.33;;;15.90;99.90;;;;;;5017744;28;20049;-72
2023/07/03 01:56:50;;;;;;;10.38;2.67;;;15.90;99.90;;;;;;5000694;28;20634;-73
2023/07/03 01:59:20;;;;;;;13.50;3.55;;;15.90;99.90;;;;;;5014650;28;20068;-73
2023/07/03 02:01:57;;;;;;;11.25;3.03;;;15.90;99.90;;;;;;5006541;28;20613;-72
2023/07/03 02:04:32;;;;;;;12.02;2.83;;;15.90;99.90;;;;;;5024068;28;20048;-72
2023/07/03 02:07:01;;;;;;;13.60;3.40;;;15.90;99.90;;;;;;5011931;28;20337;-72
2023/07/03 02:09:28;;;;;;;12.82;2.92;;;15.80;99.90;;;;;;5016556;28;20045;-72
2023/07/03 02:11:55;;;;;;;10.70;2.45;;;15.80;99.90;;;;;;5022203;28;20065;-72
2023/07/03 02:14:23;;;;;;;13.43;2.47;;;15.80;99.90;;;;;;5000707;28;20345;-72
2023/07/03 02:16:50;;;;;;;12.77;2.67;;;15.80;99.90;;;;;;5018168;28;20056;-71
2023/07/03 02:19:16;;;;;;;14.60;3.42;;;15.70;99.90;;;;;;5009405;28;20146;-72
2023/07/03 02:21:44;;;;;;;14.50;2.78;;;15.70;99.90;;;;;;5021929;28;20034;-72
2023/07/03 02:24:11;;;;;;;14.45;2.38;;;15.70;99.90;;;;;;5012129;28;20046;-71
2023/07/03 02:26:37;;;;;;;11.02;2.53;;;15.70;99.90;;;;;;5018620;28;20449;-71
2023/07/03 02:29:03;;;;;;;11.15;2.45;;;15.70;99.90;;;;;;5013210;28;20876;-72
2023/07/03 02:31:29;;;;;;;12.75;2.53;;;15.60;99.90;;;;;;5017391;28;20079;-72
2023/07/03 02:33:55;;;;;;;10.88;2.45;;;15.60;99.90;;;;;;5020849;28;20045;-72
2023/07/03 02:36:20;;;;;;;10.65;2.97;;;15.60;99.90;;;;;;5014408;28;20044;-72
2023/07/03 02:38:46;;;;;;;11.10;1.95;;;15.50;99.90;;;;;;5019590;28;20124;-72
2023/07/03 02:41:12;;;;;;;15.27;2.30;;;15.50;99.90;;;;;;5005657;28;20037;-72
2023/07/03 02:43:37;;;;;;;11.43;1.90;;;15.50;99.90;;;;;;5018389;28;20509;-72
2023/07/03 02:46:04;;;;;;;12.95;2.63;;;15.50;99.90;;;;;;5012594;28;20518;-71
2023/07/03 02:48:30;;;;;;;12.80;2.40;;;15.40;99.90;;;;;;5022315;28;20037;-72
2023/07/03 02:50:56;;;;;;;12.23;2.30;;;15.40;99.90;;;;;;5016115;28;20405;-72
2023/07/03 02:53:22;;;;;;;10.88;2.20;;;15.40;99.90;;;;;;5011996;28;20037;-71
2023/07/03 02:55:49;;;;;;;13.73;2.08;;;15.30;99.90;;;;;;5016833;28;20124;-71
2023/07/03 02:58:15;;;;;;;12.02;2.30;;;15.30;99.90;;;;;;5009494;28;20045;-71
2023/07/03 03:00:41;;;;;;;12.55;2.55;;;15.30;99.90;;;;;;5019415;28;20052;-72
2023/07/03 03:03:07;;;;;;;9.77;2.15;;;15.30;99.90;;;;;;5013108;28;20077;-71
2023/07/03 03:05:33;;;;;;;11.40;2.53;;;15.20;99.90;;;;;;4999167;28;20080;-71
2023/07/03 03:07:58;;;;;;;13.45;2.88;;;15.20;99.90;;;;;;5013434;28;20079;-71
2023/07/03 03:10:24;;;;;;;11.60;2.15;;;15.20;99.90;;;;;;5011030;28;20099;-72
2023/07/03 03:12:50;;;;;;;15.55;2.58;;;15.20;99.90;;;;;;5014889;28;20521;-72
2023/07/03 03:15:18;;;;;;;9.70;1.80;;;15.10;99.90;;;;;;5014386;28;20048;-71
2023/07/03 03:17:44;;;;;;;14.73;2.65;;;15.10;99.90;;;;;;5015938;28;20045;-71
2023/07/03 03:20:13;;;;;;;10.73;2.28;;;15.10;99.90;;;;;;5005487;28;20136;-72
2023/07/03 03:22:40;;;;;;;11.15;2.20;;;15.10;99.90;;;;;;5014151;28;20041;-73
2023/07/03 03:25:06;;;;;;;8.70;1.73;;;15.00;99.90;;;;;;5010629;28;20414;-72
2023/07/03 03:27:32;;;;;;;13.38;2.20;;;15.00;99.90;;;;;;5021118;28;20038;-73
2023/07/03 03:29:58;;;;;;;13.60;3.08;;;15.00;99.90;;;;;;5014543;28;20659;-72
2023/07/03 03:32:24;;;;;;;13.45;2.10;;;15.00;99.90;;;;;;5010659;28;20048;-73
2023/07/03 03:34:50;;;;;;;11.25;2.20;;;14.90;99.90;;;;;;5018046;28;20037;-65
2023/07/03 03:37:16;;;;;;;11.07;1.85;;;14.90;99.90;;;;;;5007385;28;20088;-66
2023/07/03 03:39:43;;;;;;;11.88;1.88;;;14.90;99.90;;;;;;4998781;28;20757;-66
2023/07/03 03:42:11;;;;;;;12.57;2.22;;;14.90;99.90;;;;;;5016232;28;20702;-66
2023/07/03 03:44:38;;;;;;;10.63;2.05;;;14.90;99.90;;;;;;5018915;28;20126;-66
2023/07/03 03:47:04;;;;;;;12.10;2.33;;;14.90;99.90;;;;;;5011718;28;20045;-66
2023/07/03 03:49:31;;;;;;;11.13;1.80;;;14.80;99.90;;;;;;5017444;28;20052;-65
2023/07/03 03:51:57;;;;;;;12.55;2.20;;;14.80;99.90;;;;;;5008229;28;20111;-65
2023/07/03 03:54:23;;;;;;;11.32;2.60;;;14.80;99.90;;;;;;5016408;28;20849;-65
2023/07/03 03:56:48;;;;;;;12.13;2.10;;;14.80;99.90;;;;;;5010782;28;20708;-65
2023/07/03 03:59:14;;;;;;;15.68;2.60;;;14.80;99.90;;;;;;5011992;28;20057;-65
2023/07/03 04:01:42;;;;;;;15.07;2.15;;;14.80;99.90;;;;;;5013018;28;20095;-65
2023/07/03 04:04:07;;;;;;;14.77;2.42;;;14.80;99.90;;;;;;5010704;28;20057;-65
2023/07/03 04:06:35;;;;;;;13.15;2.22;;;14.80;99.90;;;;;;5016654;28;20038;-65
2023/07/03 04:09:01;;;;;;;12.35;2.13;;;14.70;99.90;;;;;;5007187;28;20053;-65
2023/07/03 04:11:30;;;;;;;13.77;2.65;;;14.70;99.90;;;;;;5022264;28;20044;-65
2023/07/03 04:13:56;;;;;;;13.63;2.38;;;14.70;99.90;;;;;;5007419;28;20069;-65
2023/07/03 04:16:23;;;;;;;15.43;2.78;;;14.70;99.90;;;;;;5019022;28;20046;-65
2023/07/03 04:18:49;;;;;;;12.00;2.10;;;14.70;99.90;;;;;;5014996;28;20120;-65
2023/07/03 04:21:14;;;;;;;13.90;2.40;;;14.70;99.90;;;;;;5008947;28;20695;-65
2023/07/03 04:23:40;;;;;;;13.30;2.17;;;14.70;99.90;;;;;;5009945;28;20100;-71
2023/07/03 04:26:06;;;;;;;11.63;2.33;;;14.70;99.90;;;;;;5005803;28;20041;-71
2023/07/03 04:28:32;;;;;;;13.27;2.20;;;14.70;99.90;;;;;;5014896;28;20054;-72
2023/07/03 04:30:57;;;;;;;11.85;2.00;;;14.70;99.90;;;;;;5008640;28;20041;-71
2023/07/03 04:33:23;;;;;;;12.98;2.55;;;14.70;99.90;;;;;;5012723;28;20060;-71
2023/07/03 04:35:49;;;;;;;10.43;2.35;;;14.70;99.90;;;;;;5009878;28;20585;-71
2023/07/03 04:38:19;;;;;;;13.10;2.00;;;14.70;99.90;;;;;;5017479;28;20045;-71
2023/07/03 04:40:45;;;;;;;11.07;2.15;;;14.80;99.90;;;;;;5014606;28;20041;-72
2023/07/03 04:43:11;;;;;;;12.05;2.45;;;15.00;99.90;;;;;;5005480;28;20108;-71
2023/07/03 04:45:42;;;;;;;11.48;2.30;;;15.30;99.90;;;;;;5010494;28;20112;-72
2023/07/03 04:48:09;;;;;;;10.95;2.42;;;15.50;99.90;;;;;;5003461;28;20045;-72
2023/07/03 04:50:35;;;;;;;10.57;1.80;;;15.70;99.90;;;;;;5007675;28;20073;-72
2023/07/03 04:53:00;;;;;;;17.10;2.10;;;16.00;99.90;;;;;;5005573;28;20163;-73
2023/07/03 04:55:26;;;;;;;14.77;2.38;;;16.20;99.90;;;;;;5013963;28;20038;-73
2023/07/03 04:57:52;;;;;;;9.60;1.80;;;16.50;99.90;;;;;;5011516;28;20092;-72
2023/07/03 05:00:19;;;;;;;10.13;1.90;;;16.70;99.90;;;;;;5008732;28;20453;-72
2023/07/03 05:02:47;;;;;;;11.15;1.83;;;16.80;99.90;;;;;;5011718;28;20084;-72
2023/07/03 05:05:15;;;;;;;11.32;2.03;;;17.00;99.90;;;;;;5010950;28;20594;-72
2023/07/03 05:07:42;;;;;;;10.80;2.40;;;17.20;99.90;;;;;;5013155;28;20045;-72
2023/07/03 05:10:09;;;;;;;9.85;1.98;;;17.40;99.90;;;;;;5008840;28;20077;-72
2023/07/03 05:12:36;;;;;;;9.73;2.13;;;17.70;99.90;;;;;;5017811;28;20476;-73
2023/07/03 05:15:03;;;;;;;12.43;2.20;;;17.90;99.90;;;;;;5005677;28;20206;-73
2023/07/03 05:17:29;;;;;;;10.38;2.17;;;17.90;99.90;;;;;;5016201;28;20040;-73
2023/07/03 05:19:55;;;;;;;11.02;2.00;;;18.00;99.90;;;;;;5015684;28;20077;-73
2023/07/03 05:22:21;;;;;;;10.55;2.40;;;18.00;99.90;;;;;;5009262;28;20116;-73
2023/07/03 05:24:49;;;;;;;8.93;2.20;;;17.90;99.90;;;;;;5020180;28;20130;-72
2023/07/03 05:27:15;;;;;;;11.73;2.50;;;17.70;99.90;;;;;;5011122;28;20053;-73
2023/07/03 05:29:41;;;;;;;12.05;2.22;;;17.60;99.90;;;;;;5014913;28;20059;-73
2023/07/03 05:32:07;;;;;;;13.55;2.33;;;17.40;99.90;;;;;;5006611;28;20528;-74
2023/07/03 05:34:35;;;;;;;10.40;2.45;;;17.20;99.90;;;;;;5011699;28;20487;-74
2023/07/03 05:37:01;;;;;;;11.23;2.10;;;17.20;99.90;;;;;;5009618;28;20410;-72
2023/07/03 05:39:27;;;;;;;11.75;1.90;;;16.90;99.90;;;;;;5006905;28;20037;-72
2023/07/03 05:41:54;;;;;;;13.13;2.53;;;16.80;99.90;;;;;;5009593;28;20048;-72
2023/07/03 05:44:20;;;;;;;7.35;1.73;;;16.70;99.90;;;;;;4998000;28;20065;-72
2023/07/03 05:46:46;;;;;;;10.27;2.28;;;16.60;99.90;;;;;;5005584;28;20705;-72
2023/07/03 05:49:11;;;;;;;9.85;2.13;;;16.60;99.90;;;;;;4999486;28;20053;-73
2023/07/03 05:51:37;;;;;;;10.35;1.83;;;16.50;99.90;;;;;;4985649;28;20380;-72
2023/07/03 05:54:03;;;;;;;11.57;2.30;;;16.40;99.90;;;;;;5002098;28;20052;-72
2023/07/03 05:56:28;;;;;;;13.63;2.28;;;16.40;99.90;;;;;;4991169;28;20714;-73
2023/07/03 05:58:55;;;;;;;11.90;2.42;;;16.30;99.90;;;;;;5008146;28;20045;-72
2023/07/03 06:01:21;;;;;;;14.05;2.35;;;16.30;99.90;;;;;;5003114;28;20124;-72
2023/07/03 06:03:47;;;;;;;14.52;2.10;;;16.40;99.90;;;;;;5007779;28;20038;-72
2023/07/03 06:06:14;;;;;;;10.25;2.08;;;16.60;99.90;;;;;;5001037;28;20449;-72
2023/07/03 06:08:40;;;;;;;12.50;2.38;;;16.80;99.90;;;;;;5007295;28;20076;-72
2023/07/03 06:11:06;;;;;;;14.38;2.25;;;16.90;99.90;;;;;;4997991;28;20049;-72
2023/07/03 06:13:32;;;;;;;10.45;1.80;;;16.90;99.90;;;;;;4988156;28;20161;-72
2023/07/03 06:15:58;;;;;;;14.23;2.05;;;17.00;99.90;;;;;;5005672;28;20127;-73
2023/07/03 06:18:24;;;;;;;10.18;1.88;;;17.10;99.90;;;;;;4982374;28;20495;-72
2023/07/03 06:20:50;;;;;;;11.23;1.75;;;17.10;99.90;;;;;;5009005;28;20400;-72
2023/07/03 06:23:16;;;;;;;13.95;2.35;;;17.20;99.90;;;;;;5001870;28;20041;-72
2023/07/03 06:25:41;;;;;;;16.60;1.88;;;17.10;99.90;;;;;;5001724;28;20048;-73
2023/07/03 06:28:08;;;;;;;8.43;1.70;;;17.10;99.90;;;;;;5000509;28;20068;-73
2023/07/03 06:30:33;;;;;;;10.25;1.70;;;17.00;99.90;;;;;;5002743;28;20038;-72
2023/07/03 06:32:59;;;;;;;7.55;1.70;;;16.90;99.90;;;;;;5008505;28;20052;-72
2023/07/03 06:35:25;;;;;;;11.57;1.90;;;16.80;99.90;;;;;;5002576;28;20041;-72
2023/07/03 06:37:56;;;;;;;7.72;1.92;;;16.80;99.90;;;;;;5010113;28;20042;-73
2023/07/03 06:40:22;;;;;;;9.90;2.00;;;16.60;99.90;;;;;;4997609;28;20048;-73
2023/07/03 06:42:47;;;;;;;18.55;2.58;;;16.50;99.90;;;;;;5006018;28;20088;-72
2023/07/03 06:45:13;;;;;;;11.88;2.05;;;16.40;99.90;;;;;;5000513;28;20045;-72
2023/07/03 06:47:39;;;;;;;12.52;1.65;;;16.20;99.90;;;;;;5011531;28;20400;-73
2023/07/03 06:50:05;;;;;;;14.85;2.25;;;16.10;99.90;;;;;;5003253;28;20053;-72
2023/07/03 06:52:34;;;;;;;10.35;2.20;;;16.10;99.90;;;;;;5006128;28;20053;-72
2023/07/03 06:55:00;;;;;;;13.13;2.08;;;16.00;99.90;;;;;;5006400;28;20050;-72
2023/07/03 06:57:26;;;;;;;8.95;1.90;;;16.00;99.90;;;;;;5011200;28;20102;-73
2023/07/03 06:59:51;;;;;;;9.70;2.25;;;15.90;99.90;;;;;;5010073;28;20136;-73
2023/07/03 07:02:17;;;;;;;12.60;2.00;;;15.90;99.90;;;;;;5004141;28;20069;-72
2023/07/03 07:04:44;;;;;;;9.10;1.92;;;15.90;99.90;;;;;;4999452;28;20063;-73
2023/07/03 07:07:09;;;;;;;8.63;1.70;;;15.90;99.90;;;;;;4983427;28;20060;-73
2023/07/03 07:09:35;;;;;;;10.23;2.25;;;15.90;99.90;;;;;;5007569;28;20042;-73
2023/07/03 07:12:01;;;;;;;9.23;1.95;;;16.00;99.90;;;;;;5019204;28;20056;-72
2023/07/03 07:14:27;;;;;;;13.65;1.95;;;16.00;99.90;;;;;;5004975;28;20050;-73
2023/07/03 07:16:53;;;;;;;8.90;1.50;;;16.10;99.90;;;;;;5011044;28;20041;-72
2023/07/03 07:19:18;;;;;;;11.43;2.55;;;16.10;99.90;;;;;;4993319;28;20053;-72
2023/07/03 07:21:44;;;;;;;11.38;2.15;;;16.10;99.90;;;;;;5000408;28;20053;-73
2023/07/03 07:24:19;;;;;;;12.13;2.03;;;16.20;99.90;;;;;;5000093;28;20075;-72
2023/07/03 07:26:48;;;;;;;15.25;2.15;;;16.20;99.90;;;;;;5000996;28;21991;-72
2023/07/03 07:29:14;;;;;;;8.95;1.77;;;16.20;99.90;;;;;;5011914;28;20037;-72
2023/07/03 07:31:40;;;;;;;11.63;1.75;;;16.20;99.90;;;;;;4988818;28;20500;-72
2023/07/03 07:34:07;;;;;;;13.32;2.00;;;16.20;99.90;;;;;;5015453;28;20044;-73
2023/07/03 07:36:33;;;;;;;10.43;1.80;;;16.20;99.90;;;;;;4998248;28;20124;-71
2023/07/03 07:39:00;;;;;;;8.88;1.83;;;16.10;99.90;;;;;;5012653;28;20061;-73
2023/07/03 07:41:27;;;;;;;9.15;1.90;;;16.10;99.90;;;;;;5003265;28;20054;-72
2023/07/03 07:43:55;;;;;;;12.02;2.17;;;16.10;99.90;;;;;;5009309;28;20068;-74
2023/07/03 07:46:25;;;;;;;11.30;1.63;;;16.10;99.90;;;;;;5007425;28;20780;-72
2023/07/03 07:48:50;;;;;;;7.53;1.73;;;16.10;99.90;;;;;;4995428;28;20045;-72
2023/07/03 07:51:16;;;;;;;8.43;1.40;;;16.10;99.90;;;;;;5019186;28;20041;-73
2023/07/03 07:53:42;;;;;;;8.05;1.85;;;16.10;99.90;;;;;;5006169;28;20392;-72
2023/07/03 07:56:09;;;;;;;8.00;1.60;;;16.10;99.90;;;;;;5011575;28;20118;-72
2023/07/03 07:58:35;;;;;;;10.82;1.77;;;16.10;99.90;;;;;;5003057;28;20410;-72
2023/07/03 08:01:02;;;;;;;8.75;1.88;;;16.10;99.90;;;;;;5001705;28;20080;-72
2023/07/03 08:03:27;;;;;;;11.38;1.60;;;16.20;99.90;;;;;;4996161;28;20053;-72
2023/07/03 08:05:57;;;;;;;10.95;1.90;;;16.20;99.90;;;;;;4998467;28;20421;-72
2023/07/03 08:08:23;;;;;;;11.30;1.77;;;16.30;99.90;;;;;;4999487;28;20764;-71
2023/07/03 08:10:57;;;;;;;15.98;2.45;;;16.30;99.90;;;;;;5014030;28;20102;-66
2023/07/03 08:13:24;;;;;;;10.70;1.83;;;16.40;99.90;;;;;;5013350;28;20112;-65
2023/07/03 08:15:51;;;;;;;11.75;2.10;;;16.50;99.90;;;;;;5010674;28;20053;-65
2023/07/03 08:18:17;;;;;;;10.80;1.50;;;16.60;99.90;;;;;;5009573;28;20037;-66
2023/07/03 08:20:44;;;;;;;11.80;1.92;;;16.70;99.90;;;;;;5007971;28;20041;-66
2023/07/03 08:23:10;;;;;;;14.05;1.48;;;16.80;99.90;;;;;;5004256;28;20060;-66
2023/07/03 08:25:36;;;;;;;7.07;1.40;;;17.10;99.90;;;;;;5004506;28;20406;-66
2023/07/03 08:28:02;;;;;;;6.93;1.30;;;17.20;99.90;;;;;;5004902;28;20053;-66
2023/07/03 08:30:28;;;;;;;7.93;1.48;;;17.30;99.90;;;;;;4984378;28;20147;-66
2023/07/03 08:32:54;;;;;;;8.05;1.50;;;17.30;99.90;;;;;;5001783;28;20041;-66
2023/07/03 08:35:20;;;;;;;9.32;1.58;;;17.30;99.90;;;;;;4999054;28;20049;-66
2023/07/03 08:37:45;;;;;;;8.75;1.40;;;17.30;99.90;;;;;;5000059;28;20050;-66
2023/07/03 08:40:17;;;;;;;9.95;2.13;;;17.40;99.90;;;;;;5003266;28;20051;-73
2023/07/03 08:42:55;;;;;;;;;;;17.50;99.90;;;;;;5007482;28;20111;-73
2023/07/03 08:45:27;;;;;;;7.43;1.40;;;17.60;99.90;;;;;;5005645;28;19925;-74
2023/07/03 08:47:55;;;;;;;9.68;1.33;;;17.60;99.90;;;;;;5002647;28;20065;-73
2023/07/03 08:50:22;;;;;;;6.43;1.73;;;17.60;99.90;;;;;;4999795;28;20160;-72
2023/07/03 08:53:03;;;;;;;9.02;1.48;;;17.60;99.90;;;;;;5001364;28;20056;-72
2023/07/03 08:55:38;;;;;;;14.07;1.52;;;17.50;99.90;;;;;;4994692;28;20053;-72
2023/07/03 08:58:06;;;;;;;8.88;1.80;;;17.40;99.90;;;;;;5003498;28;20071;-72
2023/07/03 09:00:38;;;;;;;7.68;1.55;;;17.30;99.90;;;;;;4987032;28;20141;-65
2023/07/03 09:03:38;;;;;;;10.57;1.85;;;17.20;99.90;;;;;;5005391;28;20507;-66
2023/07/03 09:06:32;;;;;;;9.43;1.55;;;17.10;99.90;;;;;;5007248;28;20521;-65
2023/07/03 09:09:27;;;;;;;12.05;1.83;;;17.10;99.90;;;;;;5006806;28;20045;-65
2023/07/03 09:12:05;;;;;;;8.65;1.40;;;17.00;99.90;;;;;;5011105;28;20072;-66
2023/07/03 09:14:40;;;;;;;12.02;2.30;;;17.00;99.90;;;;;;5004933;28;20058;-66
2023/07/03 09:17:10;;;;;;;8.95;1.70;;;16.90;99.90;;;;;;5002874;28;20049;-67
2023/07/03 09:19:37;;;;;;;8.90;1.60;;;16.90;99.90;;;;;;5009518;28;20104;-65
2023/07/03 09:22:06;;;;;;;8.40;1.70;;;16.80;99.90;;;;;;5030283;28;20049;-65
2023/07/03 09:24:38;;;;;;;12.13;1.85;;;16.80;99.90;;;;;;5017429;28;20076;-65
2023/07/03 09:27:26;;;;;;;10.13;1.77;;;16.80;99.90;;;;;;5023256;28;20042;-65
2023/07/03 09:29:57;;;;;;;9.48;2.05;;;16.80;99.90;;;;;;5017603;28;20602;-65
2023/07/03 09:32:29;;;;;;;10.25;1.23;;;16.70;99.90;;;;;;5002707;28;20590;-65
2023/07/03 09:35:11;;;;;;;;;;;16.70;99.90;;;;;;5013346;28;20115;-66
2023/07/03 09:37:56;;;;;;;8.18;1.40;;;16.70;99.90;;;;;;5016589;28;20020;-67
2023/07/03 09:40:25;;;;;;;7.47;1.65;;;16.70;99.90;;;;;;5009067;28;20053;-66
2023/07/03 09:42:52;;;;;;;9.32;1.52;;;16.70;99.90;;;;;;5011903;28;20119;-66
2023/07/03 09:45:20;;;;;;;3.97;1.27;;;16.70;99.90;;;;;;5015794;28;20128;-66
2023/07/03 09:47:49;;;;;;;14.35;2.42;;;16.70;99.90;;;;;;5012338;28;20049;-66
2023/07/03 09:50:20;;;;;;;14.82;2.15;;;16.70;99.90;;;;;;5015787;28;20034;-67
2023/07/03 09:52:54;;;;;;;6.45;1.23;;;16.70;99.90;;;;;;5011497;28;20053;-66
2023/07/03 09:55:21;;;;;;;6.10;1.17;;;16.60;99.90;;;;;;5010610;28;20049;-66
2023/07/03 09:57:47;;;;;;;4.28;0.90;;;16.50;99.90;;;;;;5008700;28;20399;-66
2023/07/03 10:00:17;;;;;;;6.90;1.38;;;16.40;99.90;;;;;;5009729;28;20056;-66
2023/07/03 10:02:43;;;;;;;10.63;2.08;;;16.30;99.90;;;;;;5012527;28;20045;-66
2023/07/03 10:05:17;;;;;;;6.90;1.50;;;16.20;99.90;;;;;;5008194;28;20115;-66
2023/07/03 10:07:45;;;;;;;5.40;1.15;;;16.20;99.90;;;;;;5007057;28;20115;-66
2023/07/03 10:10:19;;;;;;;8.77;1.65;;;16.10;99.90;;;;;;5007126;28;20506;-66
2023/07/03 10:13:01;;;;;;;10.52;1.85;;;16.10;99.90;;;;;;4995217;28;20052;-66
2023/07/03 10:15:31;;;;;;;9.68;1.40;;;16.10;99.90;;;;;;4994114;28;20064;-66
2023/07/03 10:18:07;;;;;;;7.15;1.02;;;16.00;99.90;;;;;;5022527;28;20087;-66
2023/07/03 10:20:36;;;;;;;6.43;1.33;;;16.00;99.90;;;;;;5010519;28;20045;-66
2023/07/03 10:23:07;;;;;;;6.00;1.23;;;15.90;99.90;;;;;;5008993;28;20045;-66
2023/07/03 10:25:39;;;;;;;9.45;1.48;;;16.00;99.90;;;;;;5012391;28;20554;-67
2023/07/03 10:28:11;;;;;;;8.82;1.45;;;16.10;99.90;;;;;;5016733;28;20037;-66
2023/07/03 10:30:41;;;;;;;9.20;1.35;;;16.20;99.90;;;;;;5012469;28;20052;-66
2023/07/03 10:33:14;;;;;;;6.88;1.50;;;16.30;99.90;;;;;;5005219;28;20060;-66
2023/07/03 10:35:43;;;;;;;11.57;1.88;;;16.30;99.90;;;;;;5007711;28;20076;-66
2023/07/03 10:38:35;;;;;;;8.43;1.75;;;16.30;99.90;;;;;;5004416;28;20052;-66
2023/07/03 10:41:31;;;;;;;7.32;1.40;;;16.20;99.90;;;;;;5009084;28;20052;-66
2023/07/03 10:44:03;;;;;;;6.90;1.50;;;16.20;99.90;;;;;;5014371;28;20061;-66
2023/07/03 10:47:04;;;;;;;7.82;1.40;;;16.10;99.90;;;;;;5013343;28;20188;-66
2023/07/03 10:49:32;;;;;;;6.90;1.27;;;16.10;99.90;;;;;;5019324;28;20065;-72
2023/07/03 10:52:32;;;;;;;9.27;1.80;;;16.10;99.90;;;;;;5003416;28;20107;-72
2023/07/03 10:55:30;;;;;;;8.77;1.50;;;16.10;99.90;;;;;;5010280;28;20077;-73
2023/07/03 10:57:56;;;;;;;9.32;1.70;;;16.20;99.90;;;;;;5016115;28;20045;-72
2023/07/03 11:00:46;;;;;;;8.13;1.38;;;16.20;99.90;;;;;;5019769;28;20406;-72
2023/07/03 11:03:30;;;;;;;9.70;1.80;;;16.30;99.90;;;;;;5020907;28;20041;-72
2023/07/03 11:06:05;;;;;;;9.13;1.67;;;16.40;99.90;;;;;;5014626;28;20053;-72
2023/07/03 11:08:39;;;;;;;11.15;2.10;;;16.50;99.90;;;;;;4992935;28;20053;-71
2023/07/03 11:11:18;;;;;;;10.45;2.08;;;16.70;99.90;;;;;;5013826;28;20558;-73
2023/07/03 11:13:53;;;;;;;5.65;1.20;;;16.90;99.90;;;;;;5017698;28;20060;-73
2023/07/03 11:16:23;;;;;;;6.47;1.20;;;17.10;99.90;;;;;;5020436;28;20080;-73
2023/07/03 11:19:13;;;;;;;7.05;1.15;;;17.20;99.90;;;;;;5017676;28;20130;-72
2023/07/03 11:21:50;;;;;;;8.02;1.20;;;17.20;99.90;;;;;;5017246;28;20059;-73
2023/07/03 11:24:36;;;;;;;5.63;1.10;;;17.20;99.90;;;;;;5017676;28;20152;-71
2023/07/03 11:27:11;;;;;;;10.10;1.40;;;17.30;99.90;;;;;;5016926;28;20454;-74
2023/07/03 11:29:37;;;;;;;5.30;1.38;;;17.20;99.90;;;;;;5021706;28;20120;-73
2023/07/03 11:32:05;;;;;;;8.07;1.25;;;17.20;99.90;;;;;;4999780;28;20449;-72
2023/07/03 11:34:32;;;;;;;14.02;1.75;;;17.10;99.90;;;;;;5019942;28;20083;-73
2023/07/03 11:36:57;;;;;;;6.50;1.30;;;17.10;99.90;;;;;;5022989;28;20041;-73
2023/07/03 11:39:28;;;;;;;8.30;1.35;;;17.10;99.90;;;;;;5015401;28;20620;-73
2023/07/03 11:42:15;;;;;;;4.07;1.10;;;17.00;99.90;;;;;;5014980;28;20609;-73
2023/07/03 11:44:45;;;;;;;7.72;1.20;;;17.00;99.90;;;;;;5023092;28;20054;-73
2023/07/03 11:47:25;;;;;;;7.85;1.10;;;16.90;99.90;;;;;;5014894;28;20060;-72
2023/07/03 11:49:52;;;;;;;7.55;1.40;;;16.90;99.90;;;;;;5020979;28;20053;-73
2023/07/03 11:52:28;;;;;;;7.10;1.40;;;16.90;99.90;;;;;;5011445;28;20155;-74
2023/07/03 11:55:05;;;;;;;7.57;1.52;;;17.00;99.90;;;;;;5017569;28;20052;-71
2023/07/03 11:57:44;;;;;;;7.53;1.40;;;17.20;99.90;;;;;;5015795;28;20049;-72
2023/07/03 12:00:27;;;;;;;6.10;1.45;;;17.20;99.90;;;;;;5011942;28;20150;-72
2023/07/03 12:03:06;;;;;;;8.20;1.65;;;17.20;99.90;;;;;;5013116;28;20069;-71
2023/07/03 12:08:18;;;;;;;10.48;1.67;;;17.20;99.90;;;;;;5010282;28;20053;-73
2023/07/03 12:10:57;;;;;;;4.93;1.10;;;17.20;99.90;;;;;;5014028;28;20044;-72
2023/07/03 12:13:26;;;;;;;6.40;1.35;;;17.20;99.90;;;;;;5013498;28;20049;-73
2023/07/03 12:15:56;;;;;;;5.60;1.20;;;17.20;99.90;;;;;;5013395;28;20073;-73
2023/07/03 12:18:22;;;;;;;6.07;1.10;;;17.20;99.90;;;;;;4993151;28;20088;-73
2023/07/03 12:20:59;;;;;;;7.05;1.40;;;17.20;99.90;;;;;;4993477;28;20045;-73
2023/07/03 12:23:38;;;;;;;7.10;1.50;;;17.10;99.90;;;;;;5013320;28;20772;-72
2023/07/03 12:26:06;;;;;;;6.07;1.40;;;17.20;99.90;;;;;;5009588;28;20135;-74
2023/07/03 12:28:33;;;;;;;8.70;1.35;;;17.10;99.90;;;;;;4991245;28;20041;-73
2023/07/03 12:31:34;;;;;;;8.25;1.63;;;17.10;99.90;;;;;;5001903;28;20049;-73
2023/07/03 12:34:00;;;;;;;6.07;1.40;;;17.10;99.90;;;;;;4997232;28;20060;-74
2023/07/03 12:36:34;;;;;;;9.82;1.73;;;17.10;99.90;;;;;;5005314;28;20049;-74
2023/07/03 12:39:09;;;;;;;8.50;1.50;;;17.10;99.90;;;;;;5010954;28;20553;-74
2023/07/03 12:41:36;;;;;;;7.75;1.60;;;17.10;99.90;;;;;;5010805;28;20493;-73
2023/07/03 12:44:03;;;;;;;8.48;1.60;;;17.00;99.90;;;;;;5013592;28;20049;-73
2023/07/03 12:46:30;;;;;;;11.57;1.52;;;17.00;99.90;;;;;;5010561;28;20046;-73
2023/07/03 12:49:06;;;;;;;10.55;2.28;;;17.00;99.90;;;;;;5008156;28;20041;-74
2023/07/03 12:51:53;;;;;;;12.82;1.83;;;17.00;99.90;;;;;;5008992;28;20042;-74
2023/07/03 12:54:20;;;;;;;9.98;1.52;;;17.00;99.90;;;;;;5009022;28;20042;-73